sensor_id;sensor_type;location;lat;lon;timestamp;P1;durP1;ratioP1;P2;durP2;ratioP2
11305;SDS011;5708;50.660;6.778;2023-07-28T00:01:23;2.97;;;0.57;;
11305;SDS011;5708;50.660;6.778;2023-07-28T00:03:48;1.13;;;0.40;;
11305;SDS011;5708;50.660;6.778;2023-07-28T00:06:14;1.33;;;0.63;;
11305;SDS011;5708;50.660;6.778;2023-07-28T00:08:39;0.70;;;0.50;;
11305;SDS011;5708;50.660;6.778;2023-07-28T00:11:08;2.28;;;0.50;;
11305;SDS011;5708;50.660;6.778;2023-07-28T00:13:40;1.88;;;0.80;;
11305;SDS011;5708;50.660;6.778;2023-07-28T00:16:06;1.40;;;0.50;;
11305;SDS011;5708;50.660;6.778;2023-07-28T00:18:31;2.30;;;0.40;;
11305;SDS011;5708;50.660;6.778;2023-07-28T00:20:57;0.60;;;0.50;;
11305;SDS011;5708;50.660;6.778;2023-07-28T00:23:22;1.55;;;0.30;;
11305;SDS011;5708;50.660;6.778;2023-07-28T00:25:47;1.30;;;0.50;;
11305;SDS011;5708;50.660;6.778;2023-07-28T00:28:13;0.57;;;0.40;;
11305;SDS011;5708;50.660;6.778;2023-07-28T00:30:39;1.85;;;0.30;;
11305;SDS011;5708;50.660;6.778;2023-07-28T00:33:04;1.90;;;0.40;;
11305;SDS011;5708;50.660;6.778;2023-07-28T00:35:30;0.63;;;0.45;;
11305;SDS011;5708;50.660;6.778;2023-07-28T00:37:55;0.82;;;0.40;;
11305;SDS011;5708;50.660;6.778;2023-07-28T00:40:21;1.75;;;0.40;;
11305;SDS011;5708;50.660;6.778;2023-07-28T00:42:47;1.40;;;0.50;;
11305;SDS011;5708;50.660;6.778;2023-07-28T00:45:13;1.50;;;0.38;;
11305;SDS011;5708;50.660;6.778;2023-07-28T00:47:38;0.43;;;0.30;;
11305;SDS011;5708;50.660;6.778;2023-07-28T00:50:04;0.98;;;0.35;;
11305;SDS011;5708;50.660;6.778;2023-07-28T00:52:30;1.45;;;0.38;;
11305;SDS011;5708;50.660;6.778;2023-07-28T00:54:55;2.63;;;0.30;;
11305;SDS011;5708;50.660;6.778;2023-07-28T00:57:21;0.85;;;0.30;;
11305;SDS011;5708;50.660;6.778;2023-07-28T00:59:46;0.63;;;0.40;;
11305;SDS011;5708;50.660;6.778;2023-07-28T01:02:12;0.20;;;0.20;;
11305;SDS011;5708;50.660;6.778;2023-07-28T01:04:37;0.38;;;0.30;;
11305;SDS011;5708;50.660;6.778;2023-07-28T01:09:39;1.05;;;0.20;;
11305;SDS011;5708;50.660;6.778;2023-07-28T01:12:12;1.80;;;0.32;;
11305;SDS011;5708;50.660;6.778;2023-07-28T01:14:37;2.10;;;0.30;;
11305;SDS011;5708;50.660;6.778;2023-07-28T01:17:03;0.30;;;0.20;;
11305;SDS011;5708;50.660;6.778;2023-07-28T01:19:28;2.95;;;0.30;;
11305;SDS011;5708;50.660;6.778;2023-07-28T01:21:57;2.10;;;0.30;;
11305;SDS011;5708;50.660;6.778;2023-07-28T01:24:39;0.40;;;0.30;;
11305;SDS011;5708;50.660;6.778;2023-07-28T01:27:25;1.10;;;0.30;;
11305;SDS011;5708;50.660;6.778;2023-07-28T01:29:50;2.00;;;0.40;;
11305;SDS011;5708;50.660;6.778;2023-07-28T01:32:16;1.75;;;0.30;;
11305;SDS011;5708;50.660;6.778;2023-07-28T01:34:42;1.35;;;0.30;;
11305;SDS011;5708;50.660;6.778;2023-07-28T01:37:07;1.90;;;0.35;;
11305;SDS011;5708;50.660;6.778;2023-07-28T01:39:32;1.58;;;0.40;;
11305;SDS011;5708;50.660;6.778;2023-07-28T01:41:58;0.40;;;0.20;;
11305;SDS011;5708;50.660;6.778;2023-07-28T01:44:23;1.60;;;0.30;;
11305;SDS011;5708;50.660;6.778;2023-07-28T01:46:49;3.00;;;0.30;;
11305;SDS011;5708;50.660;6.778;2023-07-28T01:49:14;1.55;;;0.30;;
11305;SDS011;5708;50.660;6.778;2023-07-28T01:51:39;1.08;;;0.45;;
11305;SDS011;5708;50.660;6.778;2023-07-28T01:54:05;1.67;;;0.20;;
11305;SDS011;5708;50.660;6.778;2023-07-28T01:56:30;1.52;;;0.35;;
11305;SDS011;5708;50.660;6.778;2023-07-28T01:58:55;2.03;;;0.55;;
11305;SDS011;5708;50.660;6.778;2023-07-28T02:01:21;1.95;;;0.30;;
11305;SDS011;5708;50.660;6.778;2023-07-28T02:03:46;2.15;;;0.40;;
11305;SDS011;5708;50.660;6.778;2023-07-28T02:06:12;6.20;;;0.50;;
11305;SDS011;5708;50.660;6.778;2023-07-28T02:08:37;1.80;;;0.30;;
11305;SDS011;5708;50.660;6.778;2023-07-28T02:11:02;2.13;;;0.35;;
11305;SDS011;5708;50.660;6.778;2023-07-28T02:13:28;1.52;;;0.20;;
11305;SDS011;5708;50.660;6.778;2023-07-28T02:15:54;2.88;;;0.28;;
11305;SDS011;5708;50.660;6.778;2023-07-28T02:18:19;0.63;;;0.20;;
11305;SDS011;5708;50.660;6.778;2023-07-28T02:20:47;1.98;;;0.40;;
11305;SDS011;5708;50.660;6.778;2023-07-28T02:23:13;3.83;;;0.50;;
11305;SDS011;5708;50.660;6.778;2023-07-28T02:25:39;2.28;;;0.30;;
11305;SDS011;5708;50.660;6.778;2023-07-28T02:28:04;1.08;;;0.20;;
11305;SDS011;5708;50.660;6.778;2023-07-28T02:30:29;0.30;;;0.20;;
11305;SDS011;5708;50.660;6.778;2023-07-28T02:32:55;1.65;;;0.25;;
11305;SDS011;5708;50.660;6.778;2023-07-28T02:35:20;1.02;;;0.28;;
11305;SDS011;5708;50.660;6.778;2023-07-28T02:37:45;1.00;;;0.30;;
11305;SDS011;5708;50.660;6.778;2023-07-28T02:40:11;1.80;;;0.43;;
11305;SDS011;5708;50.660;6.778;2023-07-28T02:42:37;4.05;;;0.52;;
11305;SDS011;5708;50.660;6.778;2023-07-28T02:45:03;2.70;;;0.60;;
11305;SDS011;5708;50.660;6.778;2023-07-28T02:47:29;2.50;;;0.47;;
11305;SDS011;5708;50.660;6.778;2023-07-28T02:49:54;1.60;;;0.70;;
11305;SDS011;5708;50.660;6.778;2023-07-28T02:52:19;2.13;;;0.30;;
11305;SDS011;5708;50.660;6.778;2023-07-28T02:54:45;3.75;;;0.50;;
11305;SDS011;5708;50.660;6.778;2023-07-28T02:57:10;3.22;;;0.40;;
11305;SDS011;5708;50.660;6.778;2023-07-28T02:59:35;1.02;;;0.32;;
11305;SDS011;5708;50.660;6.778;2023-07-28T03:02:01;6.43;;;0.40;;
11305;SDS011;5708;50.660;6.778;2023-07-28T03:04:26;0.50;;;0.32;;
11305;SDS011;5708;50.660;6.778;2023-07-28T03:06:52;4.13;;;0.55;;
11305;SDS011;5708;50.660;6.778;2023-07-28T03:09:17;1.40;;;0.40;;
11305;SDS011;5708;50.660;6.778;2023-07-28T03:11:43;0.90;;;0.50;;
11305;SDS011;5708;50.660;6.778;2023-07-28T03:14:08;3.95;;;0.50;;
11305;SDS011;5708;50.660;6.778;2023-07-28T03:16:34;2.92;;;0.40;;
11305;SDS011;5708;50.660;6.778;2023-07-28T03:19:00;1.02;;;0.50;;
11305;SDS011;5708;50.660;6.778;2023-07-28T03:21:25;4.72;;;0.40;;
11305;SDS011;5708;50.660;6.778;2023-07-28T03:23:50;5.10;;;0.60;;
11305;SDS011;5708;50.660;6.778;2023-07-28T03:26:16;3.38;;;0.47;;
11305;SDS011;5708;50.660;6.778;2023-07-28T03:28:41;2.13;;;0.43;;
11305;SDS011;5708;50.660;6.778;2023-07-28T03:31:06;3.00;;;0.70;;
11305;SDS011;5708;50.660;6.778;2023-07-28T03:33:32;6.03;;;0.70;;
11305;SDS011;5708;50.660;6.778;2023-07-28T03:35:58;2.35;;;0.40;;
11305;SDS011;5708;50.660;6.778;2023-07-28T03:38:23;2.63;;;0.50;;
11305;SDS011;5708;50.660;6.778;2023-07-28T03:40:49;4.32;;;0.70;;
11305;SDS011;5708;50.660;6.778;2023-07-28T03:43:14;5.00;;;0.50;;
11305;SDS011;5708;50.660;6.778;2023-07-28T03:45:40;1.80;;;0.50;;
11305;SDS011;5708;50.660;6.778;2023-07-28T03:48:05;5.53;;;0.60;;
11305;SDS011;5708;50.660;6.778;2023-07-28T03:50:31;1.80;;;0.55;;
11305;SDS011;5708;50.660;6.778;2023-07-28T03:52:56;1.92;;;0.40;;
11305;SDS011;5708;50.660;6.778;2023-07-28T03:55:21;0.55;;;0.50;;
11305;SDS011;5708;50.660;6.778;2023-07-28T03:57:47;3.50;;;0.63;;
11305;SDS011;5708;50.660;6.778;2023-07-28T04:00:12;2.15;;;0.70;;
11305;SDS011;5708;50.660;6.778;2023-07-28T04:02:39;3.83;;;0.50;;
11305;SDS011;5708;50.660;6.778;2023-07-28T04:05:04;4.35;;;0.90;;
11305;SDS011;5708;50.660;6.778;2023-07-28T04:07:30;2.10;;;0.50;;
11305;SDS011;5708;50.660;6.778;2023-07-28T04:09:55;10.27;;;0.93;;
11305;SDS011;5708;50.660;6.778;2023-07-28T04:12:20;3.25;;;0.60;;
11305;SDS011;5708;50.660;6.778;2023-07-28T04:14:46;2.65;;;0.40;;
11305;SDS011;5708;50.660;6.778;2023-07-28T04:17:11;1.92;;;0.60;;
11305;SDS011;5708;50.660;6.778;2023-07-28T04:19:36;3.47;;;0.50;;
11305;SDS011;5708;50.660;6.778;2023-07-28T04:22:02;1.38;;;0.40;;
11305;SDS011;5708;50.660;6.778;2023-07-28T04:24:27;0.80;;;0.40;;
11305;SDS011;5708;50.660;6.778;2023-07-28T04:26:53;1.75;;;0.30;;
11305;SDS011;5708;50.660;6.778;2023-07-28T04:29:18;2.42;;;0.50;;
11305;SDS011;5708;50.660;6.778;2023-07-28T04:31:43;3.08;;;1.90;;
11305;SDS011;5708;50.660;6.778;2023-07-28T04:34:09;5.05;;;0.70;;
11305;SDS011;5708;50.660;6.778;2023-07-28T04:36:34;2.40;;;0.40;;
11305;SDS011;5708;50.660;6.778;2023-07-28T04:39:00;2.03;;;0.57;;
11305;SDS011;5708;50.660;6.778;2023-07-28T04:41:25;2.05;;;0.45;;
11305;SDS011;5708;50.660;6.778;2023-07-28T04:43:51;0.80;;;0.30;;
11305;SDS011;5708;50.660;6.778;2023-07-28T04:46:16;1.38;;;0.40;;
11305;SDS011;5708;50.660;6.778;2023-07-28T04:48:42;0.82;;;0.45;;
11305;SDS011;5708;50.660;6.778;2023-07-28T04:51:07;6.68;;;0.75;;
11305;SDS011;5708;50.660;6.778;2023-07-28T04:53:32;2.33;;;0.50;;
11305;SDS011;5708;50.660;6.778;2023-07-28T04:55:58;1.08;;;0.40;;
11305;SDS011;5708;50.660;6.778;2023-07-28T04:58:23;2.65;;;0.95;;
11305;SDS011;5708;50.660;6.778;2023-07-28T05:00:49;1.52;;;0.45;;
11305;SDS011;5708;50.660;6.778;2023-07-28T05:03:14;1.85;;;0.40;;
11305;SDS011;5708;50.660;6.778;2023-07-28T05:05:42;1.65;;;0.40;;
11305;SDS011;5708;50.660;6.778;2023-07-28T05:08:08;1.45;;;0.30;;
11305;SDS011;5708;50.660;6.778;2023-07-28T05:10:37;1.48;;;0.40;;
11305;SDS011;5708;50.660;6.778;2023-07-28T05:13:02;2.25;;;0.30;;
11305;SDS011;5708;50.660;6.778;2023-07-28T05:15:30;1.17;;;0.40;;
11305;SDS011;5708;50.660;6.778;2023-07-28T05:17:59;0.60;;;0.40;;
11305;SDS011;5708;50.660;6.778;2023-07-28T05:20:24;1.05;;;0.30;;
11305;SDS011;5708;50.660;6.778;2023-07-28T05:22:49;0.20;;;0.20;;
11305;SDS011;5708;50.660;6.778;2023-07-28T05:25:15;0.40;;;0.28;;
11305;SDS011;5708;50.660;6.778;2023-07-28T05:27:40;2.95;;;0.50;;
11305;SDS011;5708;50.660;6.778;2023-07-28T05:30:06;0.20;;;0.20;;
11305;SDS011;5708;50.660;6.778;2023-07-28T05:32:32;1.40;;;0.50;;
11305;SDS011;5708;50.660;6.778;2023-07-28T05:34:58;0.65;;;0.30;;
11305;SDS011;5708;50.660;6.778;2023-07-28T05:37:23;1.20;;;0.50;;
11305;SDS011;5708;50.660;6.778;2023-07-28T05:39:49;1.52;;;0.80;;
11305;SDS011;5708;50.660;6.778;2023-07-28T05:42:15;2.30;;;0.40;;
11305;SDS011;5708;50.660;6.778;2023-07-28T05:44:40;2.05;;;0.25;;
11305;SDS011;5708;50.660;6.778;2023-07-28T05:47:05;3.53;;;0.32;;
11305;SDS011;5708;50.660;6.778;2023-07-28T05:49:31;0.20;;;0.20;;
11305;SDS011;5708;50.660;6.778;2023-07-28T05:51:57;0.80;;;0.20;;
11305;SDS011;5708;50.660;6.778;2023-07-28T05:54:22;1.30;;;0.28;;
11305;SDS011;5708;50.660;6.778;2023-07-28T05:56:48;3.05;;;0.30;;
11305;SDS011;5708;50.660;6.778;2023-07-28T05:59:13;1.38;;;0.20;;
11305;SDS011;5708;50.660;6.778;2023-07-28T06:01:38;1.30;;;0.40;;
11305;SDS011;5708;50.660;6.778;2023-07-28T06:04:04;0.98;;;0.40;;
11305;SDS011;5708;50.660;6.778;2023-07-28T06:06:29;0.25;;;0.15;;
11305;SDS011;5708;50.660;6.778;2023-07-28T06:08:54;0.73;;;0.10;;
11305;SDS011;5708;50.660;6.778;2023-07-28T06:11:20;0.77;;;0.20;;
11305;SDS011;5708;50.660;6.778;2023-07-28T06:13:49;0.30;;;0.20;;
11305;SDS011;5708;50.660;6.778;2023-07-28T06:16:14;1.80;;;0.25;;
11305;SDS011;5708;50.660;6.778;2023-07-28T06:18:39;0.60;;;0.30;;
11305;SDS011;5708;50.660;6.778;2023-07-28T06:21:05;3.25;;;0.30;;
11305;SDS011;5708;50.660;6.778;2023-07-28T06:23:30;2.70;;;0.28;;
11305;SDS011;5708;50.660;6.778;2023-07-28T06:25:56;1.50;;;0.20;;
11305;SDS011;5708;50.660;6.778;2023-07-28T06:28:21;2.58;;;0.38;;
11305;SDS011;5708;50.660;6.778;2023-07-28T06:30:46;0.85;;;0.35;;
11305;SDS011;5708;50.660;6.778;2023-07-28T06:33:12;0.32;;;0.20;;
11305;SDS011;5708;50.660;6.778;2023-07-28T06:35:39;1.27;;;0.20;;
11305;SDS011;5708;50.660;6.778;2023-07-28T06:38:04;3.20;;;0.63;;
11305;SDS011;5708;50.660;6.778;2023-07-28T06:40:30;0.10;;;0.10;;
11305;SDS011;5708;50.660;6.778;2023-07-28T06:42:55;5.32;;;0.30;;
11305;SDS011;5708;50.660;6.778;2023-07-28T06:45:21;1.55;;;0.40;;
11305;SDS011;5708;50.660;6.778;2023-07-28T06:47:46;0.52;;;0.20;;
11305;SDS011;5708;50.660;6.778;2023-07-28T06:50:12;1.70;;;0.32;;
11305;SDS011;5708;50.660;6.778;2023-07-28T06:52:38;0.30;;;0.20;;
11305;SDS011;5708;50.660;6.778;2023-07-28T06:55:03;1.08;;;0.52;;
11305;SDS011;5708;50.660;6.778;2023-07-28T06:57:29;0.20;;;0.20;;
11305;SDS011;5708;50.660;6.778;2023-07-28T06:59:55;1.33;;;0.20;;
11305;SDS011;5708;50.660;6.778;2023-07-28T07:02:21;0.38;;;0.20;;
11305;SDS011;5708;50.660;6.778;2023-07-28T07:04:46;2.28;;;0.20;;
11305;SDS011;5708;50.660;6.778;2023-07-28T07:07:12;0.40;;;0.20;;
11305;SDS011;5708;50.660;6.778;2023-07-28T07:09:37;1.13;;;0.20;;
11305;SDS011;5708;50.660;6.778;2023-07-28T07:12:03;1.27;;;0.20;;
11305;SDS011;5708;50.660;6.778;2023-07-28T07:14:28;1.65;;;0.25;;
11305;SDS011;5708;50.660;6.778;2023-07-28T07:16:54;3.05;;;0.35;;
11305;SDS011;5708;50.660;6.778;2023-07-28T07:19:19;1.73;;;0.30;;
11305;SDS011;5708;50.660;6.778;2023-07-28T07:21:45;0.55;;;0.45;;
11305;SDS011;5708;50.660;6.778;2023-07-28T07:24:10;2.63;;;0.55;;
11305;SDS011;5708;50.660;6.778;2023-07-28T07:26:38;0.47;;;0.28;;
11305;SDS011;5708;50.660;6.778;2023-07-28T07:29:04;0.63;;;0.28;;
11305;SDS011;5708;50.660;6.778;2023-07-28T07:31:30;0.98;;;0.30;;
11305;SDS011;5708;50.660;6.778;2023-07-28T07:33:55;0.20;;;0.20;;
11305;SDS011;5708;50.660;6.778;2023-07-28T07:36:20;1.05;;;0.17;;
11305;SDS011;5708;50.660;6.778;2023-07-28T07:38:46;0.93;;;0.30;;
11305;SDS011;5708;50.660;6.778;2023-07-28T07:41:12;1.58;;;0.20;;
11305;SDS011;5708;50.660;6.778;2023-07-28T07:43:41;1.70;;;0.20;;
11305;SDS011;5708;50.660;6.778;2023-07-28T07:46:06;0.60;;;0.10;;
11305;SDS011;5708;50.660;6.778;2023-07-28T07:48:32;2.88;;;0.20;;
11305;SDS011;5708;50.660;6.778;2023-07-28T07:50:57;1.42;;;0.30;;
11305;SDS011;5708;50.660;6.778;2023-07-28T07:53:23;0.20;;;0.20;;
11305;SDS011;5708;50.660;6.778;2023-07-28T07:55:49;0.70;;;0.35;;
11305;SDS011;5708;50.660;6.778;2023-07-28T07:58:14;1.35;;;0.20;;
11305;SDS011;5708;50.660;6.778;2023-07-28T08:00:40;0.85;;;0.45;;
11305;SDS011;5708;50.660;6.778;2023-07-28T08:03:05;3.30;;;0.50;;
11305;SDS011;5708;50.660;6.778;2023-07-28T08:05:31;0.73;;;0.20;;
11305;SDS011;5708;50.660;6.778;2023-07-28T08:07:56;0.30;;;0.30;;
11305;SDS011;5708;50.660;6.778;2023-07-28T08:10:22;1.35;;;0.10;;
11305;SDS011;5708;50.660;6.778;2023-07-28T08:12:47;0.43;;;0.10;;
11305;SDS011;5708;50.660;6.778;2023-07-28T08:15:13;0.25;;;0.17;;
11305;SDS011;5708;50.660;6.778;2023-07-28T08:17:38;0.52;;;0.20;;
11305;SDS011;5708;50.660;6.778;2023-07-28T08:20:05;0.10;;;0.10;;
11305;SDS011;5708;50.660;6.778;2023-07-28T08:22:33;2.30;;;0.20;;
11305;SDS011;5708;50.660;6.778;2023-07-28T08:24:58;1.65;;;0.20;;
11305;SDS011;5708;50.660;6.778;2023-07-28T08:27:23;0.20;;;0.20;;
11305;SDS011;5708;50.660;6.778;2023-07-28T08:29:49;0.68;;;0.32;;
11305;SDS011;5708;50.660;6.778;2023-07-28T08:32:14;1.10;;;0.20;;
11305;SDS011;5708;50.660;6.778;2023-07-28T08:34:40;0.20;;;0.20;;
11305;SDS011;5708;50.660;6.778;2023-07-28T08:37:05;1.40;;;0.30;;
11305;SDS011;5708;50.660;6.778;2023-07-28T08:39:32;0.47;;;0.17;;
11305;SDS011;5708;50.660;6.778;2023-07-28T08:41:58;0.47;;;0.20;;
11305;SDS011;5708;50.660;6.778;2023-07-28T08:44:25;0.10;;;0.10;;
11305;SDS011;5708;50.660;6.778;2023-07-28T08:46:51;0.32;;;0.17;;
11305;SDS011;5708;50.660;6.778;2023-07-28T08:49:17;1.85;;;0.15;;
11305;SDS011;5708;50.660;6.778;2023-07-28T08:51:42;1.70;;;0.50;;
11305;SDS011;5708;50.660;6.778;2023-07-28T08:54:07;0.63;;;0.20;;
11305;SDS011;5708;50.660;6.778;2023-07-28T08:56:33;0.55;;;0.10;;
11305;SDS011;5708;50.660;6.778;2023-07-28T08:58:58;0.20;;;0.20;;
11305;SDS011;5708;50.660;6.778;2023-07-28T09:01:24;0.32;;;0.20;;
11305;SDS011;5708;50.660;6.778;2023-07-28T09:03:50;0.20;;;0.10;;
11305;SDS011;5708;50.660;6.778;2023-07-28T09:06:15;2.85;;;0.20;;
11305;SDS011;5708;50.660;6.778;2023-07-28T09:08:41;0.75;;;0.20;;
11305;SDS011;5708;50.660;6.778;2023-07-28T09:11:08;0.40;;;0.10;;
11305;SDS011;5708;50.660;6.778;2023-07-28T09:13:39;1.58;;;0.20;;
11305;SDS011;5708;50.660;6.778;2023-07-28T09:16:17;0.17;;;0.10;;
11305;SDS011;5708;50.660;6.778;2023-07-28T09:18:43;0.45;;;0.20;;
11305;SDS011;5708;50.660;6.778;2023-07-28T09:21:19;0.57;;;0.22;;
11305;SDS011;5708;50.660;6.778;2023-07-28T09:23:49;0.32;;;0.20;;
11305;SDS011;5708;50.660;6.778;2023-07-28T09:26:15;1.90;;;0.30;;
11305;SDS011;5708;50.660;6.778;2023-07-28T09:28:41;0.90;;;0.20;;
11305;SDS011;5708;50.660;6.778;2023-07-28T09:31:07;0.65;;;0.20;;
11305;SDS011;5708;50.660;6.778;2023-07-28T09:33:33;0.20;;;0.20;;
11305;SDS011;5708;50.660;6.778;2023-07-28T09:36:10;3.20;;;0.40;;
11305;SDS011;5708;50.660;6.778;2023-07-28T09:38:40;0.63;;;0.20;;
11305;SDS011;5708;50.660;6.778;2023-07-28T09:41:06;0.40;;;0.17;;
11305;SDS011;5708;50.660;6.778;2023-07-28T09:43:34;1.00;;;0.30;;
11305;SDS011;5708;50.660;6.778;2023-07-28T09:46:02;0.10;;;0.10;;
11305;SDS011;5708;50.660;6.778;2023-07-28T09:48:29;0.28;;;0.15;;
11305;SDS011;5708;50.660;6.778;2023-07-28T09:50:57;0.52;;;0.25;;
11305;SDS011;5708;50.660;6.778;2023-07-28T09:53:23;1.17;;;0.20;;
11305;SDS011;5708;50.660;6.778;2023-07-28T09:55:50;0.65;;;0.20;;
11305;SDS011;5708;50.660;6.778;2023-07-28T09:58:16;0.20;;;0.20;;
11305;SDS011;5708;50.660;6.778;2023-07-28T10:00:43;0.85;;;0.22;;
11305;SDS011;5708;50.660;6.778;2023-07-28T10:03:08;0.20;;;0.20;;
11305;SDS011;5708;50.660;6.778;2023-07-28T10:05:34;0.98;;;0.40;;
11305;SDS011;5708;50.660;6.778;2023-07-28T10:07:59;0.45;;;0.20;;
11305;SDS011;5708;50.660;6.778;2023-07-28T10:10:31;1.38;;;0.30;;
11305;SDS011;5708;50.660;6.778;2023-07-28T10:12:57;0.20;;;0.15;;
11305;SDS011;5708;50.660;6.778;2023-07-28T10:15:28;1.45;;;0.10;;
11305;SDS011;5708;50.660;6.778;2023-07-28T10:17:55;0.60;;;0.28;;
11305;SDS011;5708;50.660;6.778;2023-07-28T10:20:26;0.73;;;0.30;;
11305;SDS011;5708;50.660;6.778;2023-07-28T10:22:53;0.35;;;0.20;;
11305;SDS011;5708;50.660;6.778;2023-07-28T10:25:25;0.20;;;0.20;;
11305;SDS011;5708;50.660;6.778;2023-07-28T10:27:50;0.50;;;0.20;;
11305;SDS011;5708;50.660;6.778;2023-07-28T10:30:16;0.55;;;0.20;;
11305;SDS011;5708;50.660;6.778;2023-07-28T10:32:45;0.30;;;0.30;;
11305;SDS011;5708;50.660;6.778;2023-07-28T10:37:46;0.10;;;0.10;;
11305;SDS011;5708;50.660;6.778;2023-07-28T10:43:01;1.63;;;0.50;;
11305;SDS011;5708;50.660;6.778;2023-07-28T10:45:29;0.30;;;0.30;;
11305;SDS011;5708;50.660;6.778;2023-07-28T10:47:55;1.10;;;0.30;;
11305;SDS011;5708;50.660;6.778;2023-07-28T10:50:22;0.20;;;0.20;;
11305;SDS011;5708;50.660;6.778;2023-07-28T10:52:48;0.40;;;0.30;;
11305;SDS011;5708;50.660;6.778;2023-07-28T10:55:17;0.38;;;0.20;;
11305;SDS011;5708;50.660;6.778;2023-07-28T10:57:47;0.20;;;0.20;;
11305;SDS011;5708;50.660;6.778;2023-07-28T11:00:14;0.93;;;0.20;;
11305;SDS011;5708;50.660;6.778;2023-07-28T11:02:44;0.50;;;0.30;;
11305;SDS011;5708;50.660;6.778;2023-07-28T11:05:21;0.65;;;0.28;;
11305;SDS011;5708;50.660;6.778;2023-07-28T11:07:48;2.13;;;0.30;;
11305;SDS011;5708;50.660;6.778;2023-07-28T11:10:14;0.20;;;0.20;;
11305;SDS011;5708;50.660;6.778;2023-07-28T11:12:50;2.33;;;0.30;;
11305;SDS011;5708;50.660;6.778;2023-07-28T11:15:16;1.65;;;0.30;;
11305;SDS011;5708;50.660;6.778;2023-07-28T11:17:46;0.30;;;0.25;;
11305;SDS011;5708;50.660;6.778;2023-07-28T11:22:58;0.52;;;0.22;;
11305;SDS011;5708;50.660;6.778;2023-07-28T11:25:28;0.40;;;0.30;;
11305;SDS011;5708;50.660;6.778;2023-07-28T11:27:55;0.20;;;0.20;;
11305;SDS011;5708;50.660;6.778;2023-07-28T11:30:21;0.80;;;0.40;;
11305;SDS011;5708;50.660;6.778;2023-07-28T11:32:47;3.33;;;0.50;;
11305;SDS011;5708;50.660;6.778;2023-07-28T11:35:14;2.28;;;0.30;;
11305;SDS011;5708;50.660;6.778;2023-07-28T11:37:43;3.35;;;0.45;;
11305;SDS011;5708;50.660;6.778;2023-07-28T11:40:11;0.43;;;0.30;;
11305;SDS011;5708;50.660;6.778;2023-07-28T11:42:37;1.33;;;0.30;;
11305;SDS011;5708;50.660;6.778;2023-07-28T11:45:04;1.10;;;0.25;;
11305;SDS011;5708;50.660;6.778;2023-07-28T11:47:30;0.20;;;0.20;;
11305;SDS011;5708;50.660;6.778;2023-07-28T11:49:56;0.30;;;0.30;;
11305;SDS011;5708;50.660;6.778;2023-07-28T11:52:32;0.50;;;0.40;;
11305;SDS011;5708;50.660;6.778;2023-07-28T11:55:00;0.30;;;0.30;;
11305;SDS011;5708;50.660;6.778;2023-07-28T11:57:26;0.77;;;0.38;;
11305;SDS011;5708;50.660;6.778;2023-07-28T11:59:52;0.45;;;0.30;;
11305;SDS011;5708;50.660;6.778;2023-07-28T12:02:24;3.83;;;0.40;;
11305;SDS011;5708;50.660;6.778;2023-07-28T12:04:52;0.43;;;0.30;;
11305;SDS011;5708;50.660;6.778;2023-07-28T12:07:29;0.52;;;0.32;;
11305;SDS011;5708;50.660;6.778;2023-07-28T12:10:04;0.40;;;0.40;;
11305;SDS011;5708;50.660;6.778;2023-07-28T12:12:44;0.55;;;0.30;;
11305;SDS011;5708;50.660;6.778;2023-07-28T12:15:21;0.30;;;0.30;;
11305;SDS011;5708;50.660;6.778;2023-07-28T12:18:01;0.40;;;0.22;;
11305;SDS011;5708;50.660;6.778;2023-07-28T12:20:26;1.67;;;0.30;;
11305;SDS011;5708;50.660;6.778;2023-07-28T12:22:51;1.05;;;0.30;;
11305;SDS011;5708;50.660;6.778;2023-07-28T12:25:17;0.20;;;0.20;;
11305;SDS011;5708;50.660;6.778;2023-07-28T12:27:42;0.30;;;0.30;;
11305;SDS011;5708;50.660;6.778;2023-07-28T12:30:09;0.22;;;0.22;;
11305;SDS011;5708;50.660;6.778;2023-07-28T12:32:35;0.80;;;0.25;;
11305;SDS011;5708;50.660;6.778;2023-07-28T12:35:00;0.30;;;0.30;;
11305;SDS011;5708;50.660;6.778;2023-07-28T12:37:26;0.60;;;0.30;;
11305;SDS011;5708;50.660;6.778;2023-07-28T12:39:51;0.20;;;0.20;;
11305;SDS011;5708;50.660;6.778;2023-07-28T12:42:17;0.40;;;0.20;;
11305;SDS011;5708;50.660;6.778;2023-07-28T12:44:42;0.20;;;0.20;;
11305;SDS011;5708;50.660;6.778;2023-07-28T12:47:08;1.55;;;0.95;;
11305;SDS011;5708;50.660;6.778;2023-07-28T12:49:33;0.43;;;0.25;;
11305;SDS011;5708;50.660;6.778;2023-07-28T12:52:04;0.22;;;0.17;;
11305;SDS011;5708;50.660;6.778;2023-07-28T12:54:32;0.85;;;0.40;;
11305;SDS011;5708;50.660;6.778;2023-07-28T12:56:57;1.40;;;1.00;;
11305;SDS011;5708;50.660;6.778;2023-07-28T12:59:23;2.33;;;0.50;;
11305;SDS011;5708;50.660;6.778;2023-07-28T13:01:48;1.02;;;0.30;;
11305;SDS011;5708;50.660;6.778;2023-07-28T13:04:13;0.22;;;0.20;;
11305;SDS011;5708;50.660;6.778;2023-07-28T13:06:39;0.20;;;0.20;;
11305;SDS011;5708;50.660;6.778;2023-07-28T13:09:06;0.20;;;0.20;;
11305;SDS011;5708;50.660;6.778;2023-07-28T13:11:31;1.70;;;0.60;;
11305;SDS011;5708;50.660;6.778;2023-07-28T13:13:57;1.00;;;0.52;;
11305;SDS011;5708;50.660;6.778;2023-07-28T13:16:22;4.75;;;0.82;;
11305;SDS011;5708;50.660;6.778;2023-07-28T13:18:47;5.25;;;1.40;;
11305;SDS011;5708;50.660;6.778;2023-07-28T13:21:13;5.75;;;1.70;;
11305;SDS011;5708;50.660;6.778;2023-07-28T13:23:39;7.68;;;1.70;;
11305;SDS011;5708;50.660;6.778;2023-07-28T13:26:04;11.88;;;2.47;;
11305;SDS011;5708;50.660;6.778;2023-07-28T13:28:30;5.40;;;1.50;;
11305;SDS011;5708;50.660;6.778;2023-07-28T13:30:55;4.13;;;1.13;;
11305;SDS011;5708;50.660;6.778;2023-07-28T13:33:21;7.28;;;0.98;;
11305;SDS011;5708;50.660;6.778;2023-07-28T13:35:46;3.00;;;0.90;;
11305;SDS011;5708;50.660;6.778;2023-07-28T13:38:12;4.32;;;1.23;;
11305;SDS011;5708;50.660;6.778;2023-07-28T13:40:37;2.58;;;1.10;;
11305;SDS011;5708;50.660;6.778;2023-07-28T13:43:03;3.80;;;1.50;;
11305;SDS011;5708;50.660;6.778;2023-07-28T13:45:29;1.63;;;1.02;;
11305;SDS011;5708;50.660;6.778;2023-07-28T13:47:54;2.55;;;1.02;;
11305;SDS011;5708;50.660;6.778;2023-07-28T13:50:19;2.22;;;1.27;;
11305;SDS011;5708;50.660;6.778;2023-07-28T13:52:45;1.23;;;0.80;;
11305;SDS011;5708;50.660;6.778;2023-07-28T13:55:10;1.15;;;0.80;;
11305;SDS011;5708;50.660;6.778;2023-07-28T13:57:36;3.38;;;1.00;;
11305;SDS011;5708;50.660;6.778;2023-07-28T14:00:02;1.10;;;0.80;;
11305;SDS011;5708;50.660;6.778;2023-07-28T14:02:28;2.83;;;0.90;;
11305;SDS011;5708;50.660;6.778;2023-07-28T14:04:53;1.05;;;0.75;;
11305;SDS011;5708;50.660;6.778;2023-07-28T14:07:18;3.05;;;0.90;;
11305;SDS011;5708;50.660;6.778;2023-07-28T14:09:44;1.48;;;0.80;;
11305;SDS011;5708;50.660;6.778;2023-07-28T14:12:10;2.95;;;0.82;;
11305;SDS011;5708;50.660;6.778;2023-07-28T14:14:35;1.10;;;0.90;;
11305;SDS011;5708;50.660;6.778;2023-07-28T14:17:01;1.95;;;0.90;;
11305;SDS011;5708;50.660;6.778;2023-07-28T14:19:26;1.10;;;0.70;;
11305;SDS011;5708;50.660;6.778;2023-07-28T14:21:52;2.80;;;0.80;;
11305;SDS011;5708;50.660;6.778;2023-07-28T14:24:17;3.28;;;1.10;;
11305;SDS011;5708;50.660;6.778;2023-07-28T14:26:42;2.53;;;1.10;;
11305;SDS011;5708;50.660;6.778;2023-07-28T14:29:08;2.33;;;1.35;;
11305;SDS011;5708;50.660;6.778;2023-07-28T14:31:33;1.00;;;0.90;;
11305;SDS011;5708;50.660;6.778;2023-07-28T14:33:58;2.38;;;1.08;;
11305;SDS011;5708;50.660;6.778;2023-07-28T14:36:24;1.55;;;0.80;;
11305;SDS011;5708;50.660;6.778;2023-07-28T14:38:49;2.03;;;1.17;;
11305;SDS011;5708;50.660;6.778;2023-07-28T14:41:15;1.45;;;0.98;;
11305;SDS011;5708;50.660;6.778;2023-07-28T14:43:43;2.30;;;0.90;;
11305;SDS011;5708;50.660;6.778;2023-07-28T14:46:09;2.40;;;1.10;;
11305;SDS011;5708;50.660;6.778;2023-07-28T14:48:34;1.75;;;0.93;;
11305;SDS011;5708;50.660;6.778;2023-07-28T14:51:00;0.90;;;0.75;;
11305;SDS011;5708;50.660;6.778;2023-07-28T14:53:29;1.48;;;0.90;;
11305;SDS011;5708;50.660;6.778;2023-07-28T14:55:55;0.80;;;0.75;;
11305;SDS011;5708;50.660;6.778;2023-07-28T14:58:21;1.67;;;0.90;;
11305;SDS011;5708;50.660;6.778;2023-07-28T15:00:46;1.88;;;1.08;;
11305;SDS011;5708;50.660;6.778;2023-07-28T15:03:12;1.83;;;1.15;;
11305;SDS011;5708;50.660;6.778;2023-07-28T15:05:37;2.60;;;1.10;;